Osage River (Missouri), Tuscumbia (06926080)

StateMissouriLatestUnknown (29400 cfs)
RiverOsage RiverRatingObservedEstimated
Updated2020-02-25 22:00 (1 hour ago)Flood - The river is flooding. Obstacles can be treacherous or deadly. The river should be avoided at this stage for casual trips and definitely for the inexperienced. Trips should be attempted only with protective gear and equipment.Flood(none)(none)
Discharge29400 cfs (median: 12100 cfs)High - The river is high and potentially dangerous, especially for the young and / or inexperienced. Normal stream obstacles are sometimes difficult to navigate. Extended distances can be attempted, but canoe travel may not be advisable.High(none)(none)
Height13.87 feetGood - Conditions are ideal for a canoe or kayak. Boats typically will drag on fewer than one-quarter of riffles, if at all, and portages are unnecessary or rare. Normal float lengths can be attempted without a problem.Good(none)(none)
TrendSteady (rising over 24 hours)Low - River is low but can still be floated. Some riffles are okay but most come with significant dragging and might need a portage. Float lengths should be reduced to accommodate low flow, dragging, and portages.Low(none)(none)
USGSExternal icon USGS Site (External icon Google Maps)Poor - River is too low to float comfortably. Most or all riffles will drag or must be portaged and some obstacles (such as slick shelf rock) cause undue problems. Avoid the river at this stage for casual paddling trips.Poor(none)(none)

Trending Data

Plot Image

Trips for Osage River (Missouri), Tuscumbia (06926080)

DateStartEndDistanceConditionDischargeHeightFishingDetails

A total of 0 rows are displayed.

Condition Descriptions

Fishing Conditions

Fish Species

Notes

Classic Trip List

The classic River Trips application is still available for use. It is updated with the new system using a data retrofit. It is no longer maintained. The original River Trips application is no longer updated (as of 1 Dec 2016) but can be checked for errors or for the condition of the data before it was converted to the new system.

Gauge Data Table

ObservationHeightDischargeMaximum
Discharge
Minimum
Discharge
Mean
Discharge
P05P10P20P25P50
(Median)
P75P80P90P95
2020-02-25 22:00 13.87 29400 30200 (2018) 2420 (2017) 14200 2420 4200 12100 26300 30200
2020-02-25 21:00 13.86 29400 30200 (2018) 2420 (2017) 14200 2420 4200 12100 26300 30200
2020-02-25 20:00 13.86 29400 30200 (2018) 2420 (2017) 14200 2420 4200 12100 26300 30200
2020-02-25 19:00 13.81 29200 30200 (2018) 2420 (2017) 14200 2420 4200 12100 26300 30200
2020-02-25 18:00 13.82 29200 30200 (2018) 2420 (2017) 14200 2420 4200 12100 26300 30200
2020-02-25 17:00 13.78 29100 30200 (2018) 2420 (2017) 14200 2420 4200 12100 26300 30200
2020-02-25 16:00 13.75 29000 30200 (2018) 2420 (2017) 14200 2420 4200 12100 26300 30200
2020-02-25 15:00 13.70 28900 30200 (2018) 2420 (2017) 14200 2420 4200 12100 26300 30200
2020-02-25 14:00 13.66 28800 30200 (2018) 2420 (2017) 14200 2420 4200 12100 26300 30200
2020-02-25 13:00 13.61 28600 30200 (2018) 2420 (2017) 14200 2420 4200 12100 26300 30200
2020-02-25 12:00 13.53 28400 30200 (2018) 2420 (2017) 14200 2420 4200 12100 26300 30200
2020-02-25 11:00 13.44 28100 30200 (2018) 2420 (2017) 14200 2420 4200 12100 26300 30200
2020-02-25 10:00 13.32 27800 30200 (2018) 2420 (2017) 14200 2420 4200 12100 26300 30200
2020-02-25 09:00 13.16 27300 30200 (2018) 2420 (2017) 14200 2420 4200 12100 26300 30200
2020-02-25 08:00 13.01 26900 30200 (2018) 2420 (2017) 14200 2420 4200 12100 26300 30200
2020-02-25 07:00 12.79 26200 30200 (2018) 2420 (2017) 14200 2420 4200 12100 26300 30200
2020-02-25 06:00 12.49 25400 30200 (2018) 2420 (2017) 14200 2420 4200 12100 26300 30200
2020-02-25 05:00 12.17 24500 30200 (2018) 2420 (2017) 14200 2420 4200 12100 26300 30200
2020-02-25 04:00 11.78 23400 30200 (2018) 2420 (2017) 14200 2420 4200 12100 26300 30200
2020-02-25 03:00 11.28 22000 30200 (2018) 2420 (2017) 14200 2420 4200 12100 26300 30200
2020-02-25 02:00 10.74 20500 30200 (2018) 2420 (2017) 14200 2420 4200 12100 26300 30200
2020-02-25 01:00 10.20 19100 30200 (2018) 2420 (2017) 14200 2420 4200 12100 26300 30200
2020-02-25 00:00 10.06 18700 30200 (2018) 2420 (2017) 14200 2420 4200 12100 26300 30200
2020-02-24 23:00 10.28 19300 17100 (2018) 4620 (2017) 11600 4620 5890 12400 16600 17100
2020-02-24 22:00 10.49 19900 17100 (2018) 4620 (2017) 11600 4620 5890 12400 16600 17100
2020-02-24 21:00 10.74 20500 17100 (2018) 4620 (2017) 11600 4620 5890 12400 16600 17100
2020-02-24 20:00 11.04 21300 17100 (2018) 4620 (2017) 11600 4620 5890 12400 16600 17100
2020-02-24 19:00 11.34 22200 17100 (2018) 4620 (2017) 11600 4620 5890 12400 16600 17100
2020-02-24 18:00 11.54 22700 17100 (2018) 4620 (2017) 11600 4620 5890 12400 16600 17100
2020-02-24 17:00 11.77 23300 17100 (2018) 4620 (2017) 11600 4620 5890 12400 16600 17100
2020-02-24 16:00 12.03 24100 17100 (2018) 4620 (2017) 11600 4620 5890 12400 16600 17100
2020-02-24 15:00 12.36 25000 17100 (2018) 4620 (2017) 11600 4620 5890 12400 16600 17100
2020-02-24 14:00 12.45 25300 17100 (2018) 4620 (2017) 11600 4620 5890 12400 16600 17100
2020-02-24 13:00 12.05 24100 17100 (2018) 4620 (2017) 11600 4620 5890 12400 16600 17100
2020-02-24 12:00 11.56 22800 17100 (2018) 4620 (2017) 11600 4620 5890 12400 16600 17100
2020-02-24 11:00 11.04 21300 17100 (2018) 4620 (2017) 11600 4620 5890 12400 16600 17100
2020-02-24 10:00 10.65 20300 17100 (2018) 4620 (2017) 11600 4620 5890 12400 16600 17100
2020-02-24 09:00 10.44 19700 17100 (2018) 4620 (2017) 11600 4620 5890 12400 16600 17100
2020-02-24 08:00 10.27 19300 17100 (2018) 4620 (2017) 11600 4620 5890 12400 16600 17100
2020-02-24 07:00 10.33 19400 17100 (2018) 4620 (2017) 11600 4620 5890 12400 16600 17100
2020-02-24 06:00 10.24 19200 17100 (2018) 4620 (2017) 11600 4620 5890 12400 16600 17100
2020-02-24 05:00 10.20 19100 17100 (2018) 4620 (2017) 11600 4620 5890 12400 16600 17100
2020-02-24 04:00 10.15 18900 17100 (2018) 4620 (2017) 11600 4620 5890 12400 16600 17100
2020-02-24 03:00 10.02 18500 17100 (2018) 4620 (2017) 11600 4620 5890 12400 16600 17100
2020-02-24 02:00 9.79 17800 17100 (2018) 4620 (2017) 11600 4620 5890 12400 16600 17100
2020-02-24 01:00 9.60 17300 17100 (2018) 4620 (2017) 11600 4620 5890 12400 16600 17100
2020-02-24 00:00 9.58 17200 17100 (2018) 4620 (2017) 11600 4620 5890 12400 16600 17100
2020-02-23 23:00 9.55 17100 20700 (2018) 5370 (2017) 14100 5370 6580 15100 20500 20700
2020-02-23 22:00 9.53 17100 20700 (2018) 5370 (2017) 14100 5370 6580 15100 20500 20700
2020-02-23 21:00 9.42 16800 20700 (2018) 5370 (2017) 14100 5370 6580 15100 20500 20700
2020-02-23 20:00 9.21 16200 20700 (2018) 5370 (2017) 14100 5370 6580 15100 20500 20700
2020-02-23 19:00 8.81 15000 20700 (2018) 5370 (2017) 14100 5370 6580 15100 20500 20700
2020-02-23 18:00 8.56 14300 20700 (2018) 5370 (2017) 14100 5370 6580 15100 20500 20700
2020-02-23 17:00 8.44 14000 20700 (2018) 5370 (2017) 14100 5370 6580 15100 20500 20700
2020-02-23 16:00 8.37 13800 20700 (2018) 5370 (2017) 14100 5370 6580 15100 20500 20700
2020-02-23 15:00 8.38 13900 20700 (2018) 5370 (2017) 14100 5370 6580 15100 20500 20700
2020-02-23 14:00 8.37 13800 20700 (2018) 5370 (2017) 14100 5370 6580 15100 20500 20700
2020-02-23 13:00 8.26 13500 20700 (2018) 5370 (2017) 14100 5370 6580 15100 20500 20700
2020-02-23 12:00 8.14 13200 20700 (2018) 5370 (2017) 14100 5370 6580 15100 20500 20700
2020-02-23 11:00 8.04 12900 20700 (2018) 5370 (2017) 14100 5370 6580 15100 20500 20700
2020-02-23 10:00 7.90 12600 20700 (2018) 5370 (2017) 14100 5370 6580 15100 20500 20700
2020-02-23 09:00 7.73 12100 20700 (2018) 5370 (2017) 14100 5370 6580 15100 20500 20700
2020-02-23 08:00 7.62 11900 20700 (2018) 5370 (2017) 14100 5370 6580 15100 20500 20700
2020-02-23 07:00 7.56 11700 20700 (2018) 5370 (2017) 14100 5370 6580 15100 20500 20700
2020-02-23 06:00 7.54 11700 20700 (2018) 5370 (2017) 14100 5370 6580 15100 20500 20700
2020-02-23 05:00 7.55 11700 20700 (2018) 5370 (2017) 14100 5370 6580 15100 20500 20700
2020-02-23 04:00 7.69 12000 20700 (2018) 5370 (2017) 14100 5370 6580 15100 20500 20700
2020-02-23 03:00 7.94 12700 20700 (2018) 5370 (2017) 14100 5370 6580 15100 20500 20700
2020-02-23 02:00 8.15 13200 20700 (2018) 5370 (2017) 14100 5370 6580 15100 20500 20700
2020-02-23 01:00 8.24 13500 20700 (2018) 5370 (2017) 14100 5370 6580 15100 20500 20700
2020-02-23 00:00 8.34 13700 20700 (2018) 5370 (2017) 14100 5370 6580 15100 20500 20700
2020-02-22 23:00 8.55 14300 26200 (2019) 4990 (2017) 14300 4990 5700 13100 24200 26200
2020-02-22 22:00 8.57 14400 26200 (2019) 4990 (2017) 14300 4990 5700 13100 24200 26200
2020-02-22 21:00 8.40 13900 26200 (2019) 4990 (2017) 14300 4990 5700 13100 24200 26200
2020-02-22 20:00 8.27 13600 26200 (2019) 4990 (2017) 14300 4990 5700 13100 24200 26200
2020-02-22 19:00 8.16 13300 26200 (2019) 4990 (2017) 14300 4990 5700 13100 24200 26200
2020-02-22 18:00 8.26 13500 26200 (2019) 4990 (2017) 14300 4990 5700 13100 24200 26200
2020-02-22 17:00 8.37 13800 26200 (2019) 4990 (2017) 14300 4990 5700 13100 24200 26200
2020-02-22 16:00 8.52 14200 26200 (2019) 4990 (2017) 14300 4990 5700 13100 24200 26200
2020-02-22 15:00 8.72 14800 26200 (2019) 4990 (2017) 14300 4990 5700 13100 24200 26200
2020-02-22 14:00 8.98 15500 26200 (2019) 4990 (2017) 14300 4990 5700 13100 24200 26200
2020-02-22 13:00 9.28 16400 26200 (2019) 4990 (2017) 14300 4990 5700 13100 24200 26200
2020-02-22 12:00 9.54 17100 26200 (2019) 4990 (2017) 14300 4990 5700 13100 24200 26200
2020-02-22 11:00 9.73 17700 26200 (2019) 4990 (2017) 14300 4990 5700 13100 24200 26200
2020-02-22 10:00 10.13 18900 26200 (2019) 4990 (2017) 14300 4990 5700 13100 24200 26200
2020-02-22 09:00 10.43 19700 26200 (2019) 4990 (2017) 14300 4990 5700 13100 24200 26200
2020-02-22 08:00 10.47 19800 26200 (2019) 4990 (2017) 14300 4990 5700 13100 24200 26200
2020-02-22 07:00 10.35 19500 26200 (2019) 4990 (2017) 14300 4990 5700 13100 24200 26200
2020-02-22 06:00 10.14 18900 26200 (2019) 4990 (2017) 14300 4990 5700 13100 24200 26200
2020-02-22 05:00 10.12 18800 26200 (2019) 4990 (2017) 14300 4990 5700 13100 24200 26200
2020-02-22 04:00 10.49 19900 26200 (2019) 4990 (2017) 14300 4990 5700 13100 24200 26200
2020-02-22 03:00 10.99 21200 26200 (2019) 4990 (2017) 14300 4990 5700 13100 24200 26200
2020-02-22 02:00 11.33 22100 26200 (2019) 4990 (2017) 14300 4990 5700 13100 24200 26200
2020-02-22 01:00 11.46 22500 26200 (2019) 4990 (2017) 14300 4990 5700 13100 24200 26200
2020-02-22 00:00 11.46 22500 26200 (2019) 4990 (2017) 14300 4990 5700 13100 24200 26200
2020-02-21 23:00 11.35 22200 21200 (2019) 5110 (2016) 11400 5110 5200 9600 19300 21200
2020-02-21 22:00 10.97 21100 21200 (2019) 5110 (2016) 11400 5110 5200 9600 19300 21200
2020-02-21 21:00 10.50 19900 21200 (2019) 5110 (2016) 11400 5110 5200 9600 19300 21200
2020-02-21 20:00 9.81 17900 21200 (2019) 5110 (2016) 11400 5110 5200 9600 19300 21200
2020-02-21 19:00 9.23 16200 21200 (2019) 5110 (2016) 11400 5110 5200 9600 19300 21200
2020-02-21 18:00 9.02 15600 21200 (2019) 5110 (2016) 11400 5110 5200 9600 19300 21200
2020-02-21 17:00 9.13 15900 21200 (2019) 5110 (2016) 11400 5110 5200 9600 19300 21200
2020-02-21 16:00 9.43 16800 21200 (2019) 5110 (2016) 11400 5110 5200 9600 19300 21200
2020-02-21 15:00 9.80 17900 21200 (2019) 5110 (2016) 11400 5110 5200 9600 19300 21200
2020-02-21 14:00 10.23 19200 21200 (2019) 5110 (2016) 11400 5110 5200 9600 19300 21200
2020-02-21 13:00 10.68 20400 21200 (2019) 5110 (2016) 11400 5110 5200 9600 19300 21200
2020-02-21 12:00 11.06 21400 21200 (2019) 5110 (2016) 11400 5110 5200 9600 19300 21200
2020-02-21 11:00 11.52 22600 21200 (2019) 5110 (2016) 11400 5110 5200 9600 19300 21200
2020-02-21 10:00 11.75 23300 21200 (2019) 5110 (2016) 11400 5110 5200 9600 19300 21200
2020-02-21 09:00 11.40 22300 21200 (2019) 5110 (2016) 11400 5110 5200 9600 19300 21200
2020-02-21 08:00 11.01 21300 21200 (2019) 5110 (2016) 11400 5110 5200 9600 19300 21200
2020-02-21 07:00 10.70 20400 21200 (2019) 5110 (2016) 11400 5110 5200 9600 19300 21200
2020-02-21 06:00 10.56 20000 21200 (2019) 5110 (2016) 11400 5110 5200 9600 19300 21200
2020-02-21 05:00 10.52 19900 21200 (2019) 5110 (2016) 11400 5110 5200 9600 19300 21200
2020-02-21 04:00 10.12 18800 21200 (2019) 5110 (2016) 11400 5110 5200 9600 19300 21200
2020-02-21 03:00 9.85 18000 21200 (2019) 5110 (2016) 11400 5110 5200 9600 19300 21200
2020-02-21 02:00 9.73 17700 21200 (2019) 5110 (2016) 11400 5110 5200 9600 19300 21200
2020-02-21 01:00 9.61 17300 21200 (2019) 5110 (2016) 11400 5110 5200 9600 19300 21200
2020-02-21 00:00 9.49 17000 21200 (2019) 5110 (2016) 11400 5110 5200 9600 19300 21200
2020-02-20 23:00 9.49 17000 21900 (2019) 3120 (2017) 9610 3120 3620 6700 18500 21900
2020-02-20 22:00 9.39 16700 21900 (2019) 3120 (2017) 9610 3120 3620 6700 18500 21900
2020-02-20 21:00 9.24 16200 21900 (2019) 3120 (2017) 9610 3120 3620 6700 18500 21900
2020-02-20 20:00 9.02 15600 21900 (2019) 3120 (2017) 9610 3120 3620 6700 18500 21900
2020-02-20 19:00 8.86 15200 21900 (2019) 3120 (2017) 9610 3120 3620 6700 18500 21900
2020-02-20 18:00 8.92 15300 21900 (2019) 3120 (2017) 9610 3120 3620 6700 18500 21900
2020-02-20 17:00 9.08 15800 21900 (2019) 3120 (2017) 9610 3120 3620 6700 18500 21900
2020-02-20 16:00 9.37 16600 21900 (2019) 3120 (2017) 9610 3120 3620 6700 18500 21900
2020-02-20 15:00 9.74 17700 21900 (2019) 3120 (2017) 9610 3120 3620 6700 18500 21900
2020-02-20 14:00 10.04 18600 21900 (2019) 3120 (2017) 9610 3120 3620 6700 18500 21900
2020-02-20 13:00 10.24 19200 21900 (2019) 3120 (2017) 9610 3120 3620 6700 18500 21900
2020-02-20 12:00 10.27 19300 21900 (2019) 3120 (2017) 9610 3120 3620 6700 18500 21900
2020-02-20 11:00 10.36 19500 21900 (2019) 3120 (2017) 9610 3120 3620 6700 18500 21900
2020-02-20 10:00 10.34 19500 21900 (2019) 3120 (2017) 9610 3120 3620 6700 18500 21900
2020-02-20 09:00 10.06 18700 21900 (2019) 3120 (2017) 9610 3120 3620 6700 18500 21900
2020-02-20 08:00 9.96 18400 21900 (2019) 3120 (2017) 9610 3120 3620 6700 18500 21900
2020-02-20 07:00 10.21 19100 21900 (2019) 3120 (2017) 9610 3120 3620 6700 18500 21900
2020-02-20 06:00 10.56 20000 21900 (2019) 3120 (2017) 9610 3120 3620 6700 18500 21900
2020-02-20 05:00 10.76 20600 21900 (2019) 3120 (2017) 9610 3120 3620 6700 18500 21900
2020-02-20 04:00 10.73 20500 21900 (2019) 3120 (2017) 9610 3120 3620 6700 18500 21900
2020-02-20 03:00 10.62 20200 21900 (2019) 3120 (2017) 9610 3120 3620 6700 18500 21900
2020-02-20 02:00 10.52 19900 21900 (2019) 3120 (2017) 9610 3120 3620 6700 18500 21900
2020-02-20 01:00 10.50 19900 21900 (2019) 3120 (2017) 9610 3120 3620 6700 18500 21900
2020-02-20 00:00 10.40 19600 21900 (2019) 3120 (2017) 9610 3120 3620 6700 18500 21900
2020-02-19 23:00 10.42 19700 30100 (2019) 3540 (2017) 12700 3540 3710 8560 25800 30100
2020-02-19 22:00 10.56 20000 30100 (2019) 3540 (2017) 12700 3540 3710 8560 25800 30100
2020-02-19 21:00 10.60 20200 30100 (2019) 3540 (2017) 12700 3540 3710 8560 25800 30100
2020-02-19 20:00 10.40 19600 30100 (2019) 3540 (2017) 12700 3540 3710 8560 25800 30100
2020-02-19 19:00 10.14 18900 30100 (2019) 3540 (2017) 12700 3540 3710 8560 25800 30100
2020-02-19 18:00 10.03 18600 30100 (2019) 3540 (2017) 12700 3540 3710 8560 25800 30100
2020-02-19 17:00 9.99 18400 30100 (2019) 3540 (2017) 12700 3540 3710 8560 25800 30100
2020-02-19 16:00 1 18500 30100 (2019) 3540 (2017) 12700 3540 3710 8560 25800 30100
2020-02-19 15:00 10.06 18700 30100 (2019) 3540 (2017) 12700 3540 3710 8560 25800 30100
2020-02-19 14:00 10.24 19200 30100 (2019) 3540 (2017) 12700 3540 3710 8560 25800 30100
2020-02-19 13:00 10.38 19600 30100 (2019) 3540 (2017) 12700 3540 3710 8560 25800 30100
2020-02-19 12:00 10.34 19500 30100 (2019) 3540 (2017) 12700 3540 3710 8560 25800 30100
2020-02-19 11:00 10.20 19100 30100 (2019) 3540 (2017) 12700 3540 3710 8560 25800 30100
2020-02-19 10:00 1 18500 30100 (2019) 3540 (2017) 12700 3540 3710 8560 25800 30100
2020-02-19 09:00 9.82 17900 30100 (2019) 3540 (2017) 12700 3540 3710 8560 25800 30100
2020-02-19 08:00 9.81 17900 30100 (2019) 3540 (2017) 12700 3540 3710 8560 25800 30100
2020-02-19 07:00 9.88 18100 30100 (2019) 3540 (2017) 12700 3540 3710 8560 25800 30100
2020-02-19 06:00 9.90 18200 30100 (2019) 3540 (2017) 12700 3540 3710 8560 25800 30100
2020-02-19 05:00 9.96 18400 30100 (2019) 3540 (2017) 12700 3540 3710 8560 25800 30100
2020-02-19 04:00 9.86 18100 30100 (2019) 3540 (2017) 12700 3540 3710 8560 25800 30100
2020-02-19 03:00 9.79 17800 30100 (2019) 3540 (2017) 12700 3540 3710 8560 25800 30100
2020-02-19 02:00 9.75 17700 30100 (2019) 3540 (2017) 12700 3540 3710 8560 25800 30100
2020-02-19 01:00 9.81 17900 30100 (2019) 3540 (2017) 12700 3540 3710 8560 25800 30100
2020-02-19 00:00 10.05 18600 30100 (2019) 3540 (2017) 12700 3540 3710 8560 25800 30100
2020-02-18 23:00 10.30 19400 19400 (2019) 2680 (2018) 8900 2680 3160 6760 16800 19400
2020-02-18 22:00 10.27 19300 19400 (2019) 2680 (2018) 8900 2680 3160 6760 16800 19400
2020-02-18 21:00 10.18 19000 19400 (2019) 2680 (2018) 8900 2680 3160 6760 16800 19400
2020-02-18 20:00 10.06 18700 19400 (2019) 2680 (2018) 8900 2680 3160 6760 16800 19400
2020-02-18 19:00 9.92 18200 19400 (2019) 2680 (2018) 8900 2680 3160 6760 16800 19400
2020-02-18 18:00 9.75 17700 19400 (2019) 2680 (2018) 8900 2680 3160 6760 16800 19400
2020-02-18 17:00 9.54 17100 19400 (2019) 2680 (2018) 8900 2680 3160 6760 16800 19400
2020-02-18 16:00 9.40 16700 19400 (2019) 2680 (2018) 8900 2680 3160 6760 16800 19400
2020-02-18 15:00 9.27 16300 19400 (2019) 2680 (2018) 8900 2680 3160 6760 16800 19400
2020-02-18 14:00 9.07 15800 19400 (2019) 2680 (2018) 8900 2680 3160 6760 16800 19400
2020-02-18 13:00 8.82 15100 19400 (2019) 2680 (2018) 8900 2680 3160 6760 16800 19400
2020-02-18 12:00 8.58 14400 19400 (2019) 2680 (2018) 8900 2680 3160 6760 16800 19400
2020-02-18 11:00 8.36 13800 19400 (2019) 2680 (2018) 8900 2680 3160 6760 16800 19400
2020-02-18 10:00 8.01 12900 19400 (2019) 2680 (2018) 8900 2680 3160 6760 16800 19400
2020-02-18 09:00 7.74 12200 19400 (2019) 2680 (2018) 8900 2680 3160 6760 16800 19400
2020-02-18 08:00 7.67 12000 19400 (2019) 2680 (2018) 8900 2680 3160 6760 16800 19400
2020-02-18 07:00 7.73 12100 19400 (2019) 2680 (2018) 8900 2680 3160 6760 16800 19400
2020-02-18 06:00 7.88 12500 19400 (2019) 2680 (2018) 8900 2680 3160 6760 16800 19400
2020-02-18 05:00 8.05 13000 19400 (2019) 2680 (2018) 8900 2680 3160 6760 16800 19400
2020-02-18 04:00 8.24 13500 19400 (2019) 2680 (2018) 8900 2680 3160 6760 16800 19400
2020-02-18 03:00 8.49 14100 19400 (2019) 2680 (2018) 8900 2680 3160 6760 16800 19400
2020-02-18 02:00 8.77 14900 19400 (2019) 2680 (2018) 8900 2680 3160 6760 16800 19400
2020-02-18 01:00 9.11 15900 19400 (2019) 2680 (2018) 8900 2680 3160 6760 16800 19400
2020-02-18 00:00 9.48 16900 19400 (2019) 2680 (2018) 8900 2680 3160 6760 16800 19400

A total of 191 rows are displayed for years 2016 through 2019.